createdAt,value
2018-04-08T00:01:56.789Z,31.80
2018-04-08T00:04:25.069Z,31.60
2018-04-08T00:06:53.307Z,31.70
2018-04-08T00:09:21.586Z,31.60
2018-04-08T00:11:49.913Z,31.40
2018-04-08T00:14:18.120Z,31.50
2018-04-08T00:16:47.152Z,31.40
2018-04-08T00:19:15.456Z,31.80
2018-04-08T00:21:43.726Z,31.80
2018-04-08T00:24:12.037Z,31.60
2018-04-08T00:26:41.056Z,31.80
2018-04-08T00:29:10.338Z,31.30
2018-04-08T00:31:38.584Z,31.60
2018-04-08T00:34:07.615Z,31.30
2018-04-08T00:36:38.714Z,32.10
2018-04-08T00:39:07.406Z,31.70
2018-04-08T00:41:35.750Z,31.60
2018-04-08T00:44:04.826Z,31.70
2018-04-08T00:46:33.221Z,32.20
2018-04-08T00:49:03.056Z,31.60
2018-04-08T00:51:31.412Z,31.40
2018-04-08T00:54:11.577Z,31.60
2018-04-08T00:56:40.637Z,31.60
2018-04-08T00:59:08.651Z,31.40
2018-04-08T01:01:36.694Z,31.60
2018-04-08T01:04:04.781Z,31.60
2018-04-08T01:06:32.857Z,31.50
2018-04-08T01:09:00.912Z,31.60
2018-04-08T01:11:28.929Z,31.30
2018-04-08T01:13:57.957Z,31.60
2018-04-08T01:16:26.745Z,31.60
2018-04-08T01:18:55.910Z,31.70
2018-04-08T01:21:24.949Z,32.00
2018-04-08T01:23:53.206Z,31.80
2018-04-08T01:26:21.622Z,32.40
2018-04-08T01:28:49.943Z,31.70
2018-04-08T01:31:18.642Z,31.80
2018-04-08T01:33:47.703Z,32.10
2018-04-08T01:36:16.780Z,32.00
2018-04-08T01:38:45.107Z,32.10
2018-04-08T01:41:13.440Z,32.00
2018-04-08T01:43:41.777Z,32.40
2018-04-08T01:46:10.162Z,32.50
2018-04-08T01:48:39.500Z,32.70
2018-04-08T01:51:07.817Z,33.10
2018-04-08T01:53:36.061Z,33.10
2018-04-08T01:56:04.330Z,33.10
2018-04-08T01:58:33.360Z,33.50
2018-04-08T02:01:01.673Z,33.20
2018-04-08T02:03:29.965Z,33.60
2018-04-08T02:05:59.013Z,33.30
2018-04-08T02:08:27.296Z,33.30
2018-04-08T02:10:55.532Z,33.60
2018-04-08T02:13:24.625Z,33.80
2018-04-08T02:15:52.916Z,33.70
2018-04-08T02:18:22.003Z,33.80
2018-04-08T02:20:51.074Z,33.90
2018-04-08T02:23:20.074Z,33.50
2018-04-08T02:25:48.413Z,33.70
2018-04-08T02:28:16.637Z,33.60
2018-04-08T02:30:44.894Z,33.40
2018-04-08T02:33:13.264Z,33.50
2018-04-08T02:35:42.276Z,33.50
2018-04-08T02:38:10.540Z,33.40
2018-04-08T02:40:40.082Z,33.30
2018-04-08T02:43:09.316Z,33.30
2018-04-08T02:45:37.536Z,33.10
2018-04-08T02:48:05.840Z,33.20
2018-04-08T02:50:34.075Z,33.40
2018-04-08T02:53:03.103Z,33.10
2018-04-08T02:55:32.079Z,33.20
2018-04-08T02:58:00.379Z,34.10
2018-04-08T03:00:28.620Z,33.30
2018-04-08T03:02:56.897Z,33.30
2018-04-08T03:05:25.131Z,33.50
2018-04-08T03:07:53.399Z,33.70
2018-04-08T03:10:21.642Z,33.70
2018-04-08T03:12:50.756Z,34.50
2018-04-08T03:15:19.837Z,34.70
2018-04-08T03:17:48.068Z,34.80
2018-04-08T03:20:16.387Z,34.80
2018-04-08T03:22:44.649Z,35.30
2018-04-08T03:25:12.907Z,35.10
2018-04-08T03:27:41.178Z,35.10
2018-04-08T03:30:09.445Z,35.10
2018-04-08T03:32:38.524Z,35.10
2018-04-08T03:35:06.750Z,35.10
2018-04-08T03:37:35.022Z,35.70
2018-04-08T03:40:04.140Z,35.10
2018-04-08T03:42:32.434Z,35.40
2018-04-08T03:45:00.710Z,35.40
2018-04-08T03:47:28.967Z,35.10
2018-04-08T03:49:59.553Z,35.70
2018-04-08T03:52:29.319Z,35.30
2018-04-08T03:54:57.558Z,35.80
2018-04-08T03:57:26.738Z,35.20
2018-04-08T03:59:55.067Z,35.20
2018-04-08T04:02:23.334Z,34.60
2018-04-08T04:04:51.581Z,34.70
2018-04-08T04:07:21.256Z,34.60
2018-04-08T04:09:50.567Z,34.50
2018-04-08T04:12:18.984Z,35.00
2018-04-08T04:14:47.230Z,34.00
2018-04-08T04:17:16.206Z,34.10
2018-04-08T04:19:56.322Z,33.70
2018-04-08T04:22:37.456Z,34.10
2018-04-08T04:25:40.203Z,33.60
2018-04-08T04:28:08.477Z,33.60
2018-04-08T04:30:36.764Z,33.50
2018-04-08T04:33:05.036Z,33.70
2018-04-08T04:35:33.305Z,33.60
2018-04-08T04:38:02.324Z,33.60
2018-04-08T04:40:30.571Z,33.40
2018-04-08T04:42:58.835Z,33.50
2018-04-08T04:45:27.070Z,33.00
2018-04-08T04:47:56.241Z,33.20
2018-04-08T04:50:25.244Z,33.30
2018-04-08T04:52:54.281Z,33.50
2018-04-08T04:55:22.589Z,33.40
2018-04-08T04:57:51.638Z,33.80
2018-04-08T05:00:19.905Z,33.70
2018-04-08T05:02:48.936Z,33.70
2018-04-08T05:05:17.212Z,34.00
2018-04-08T05:07:45.436Z,34.40
2018-04-08T05:10:14.491Z,34.70
2018-04-08T05:12:42.719Z,34.70
2018-04-08T05:15:10.990Z,34.60
2018-04-08T05:17:40.891Z,34.80
2018-04-08T05:20:10.030Z,34.50
2018-04-08T05:22:38.317Z,34.40
2018-04-08T05:25:06.599Z,34.60
2018-04-08T05:27:36.368Z,34.70
2018-04-08T05:30:04.626Z,34.50
2018-04-08T05:32:32.936Z,34.60
2018-04-08T05:35:01.332Z,34.90
2018-04-08T05:37:31.311Z,35.40
2018-04-08T05:39:59.556Z,35.50
2018-04-08T05:42:28.569Z,35.50
2018-04-08T05:44:57.461Z,35.30
2018-04-08T05:47:25.683Z,35.20
2018-04-08T05:49:53.970Z,34.70
2018-04-08T05:52:22.216Z,34.90
2018-04-08T05:54:51.318Z,34.50
2018-04-08T05:57:19.581Z,34.50
2018-04-08T05:59:47.821Z,34.40
2018-04-08T06:02:16.173Z,34.40
2018-04-08T06:04:44.460Z,34.60
2018-04-08T06:07:12.721Z,34.70
2018-04-08T06:09:41.002Z,34.40
2018-04-08T06:12:09.454Z,34.20
2018-04-08T06:14:38.491Z,34.70
2018-04-08T06:17:07.073Z,33.80
2018-04-08T06:19:35.362Z,33.60
2018-04-08T06:22:03.599Z,33.30
2018-04-08T06:24:31.879Z,33.30
2018-04-08T06:27:00.144Z,33.20
2018-04-08T06:29:29.193Z,33.90
2018-04-08T06:31:57.500Z,33.50
2018-04-08T06:34:25.737Z,33.30
2018-04-08T06:36:54.003Z,33.20
2018-04-08T06:39:22.268Z,33.20
2018-04-08T06:41:51.345Z,32.90
2018-04-08T06:44:20.455Z,32.90
2018-04-08T06:46:48.732Z,33.20
2018-04-08T06:49:17.062Z,32.80
2018-04-08T06:51:46.177Z,32.80
2018-04-08T06:54:15.491Z,32.60
2018-04-08T06:56:45.467Z,32.70
2018-04-08T06:59:13.725Z,32.60
2018-04-08T07:01:42.814Z,32.50
2018-04-08T07:04:11.086Z,32.50
2018-04-08T07:06:39.378Z,32.20
2018-04-08T07:09:10.245Z,32.40
2018-04-08T07:11:38.590Z,32.10
2018-04-08T07:14:06.854Z,32.40
2018-04-08T07:16:35.594Z,32.50
2018-04-08T07:19:04.634Z,31.90
2018-04-08T07:21:33.047Z,32.00
2018-04-08T07:24:01.375Z,31.80
2018-04-08T07:26:29.709Z,31.60
2018-04-08T07:28:57.951Z,31.30
2018-04-08T07:31:26.222Z,31.40
2018-04-08T07:33:56.054Z,31.10
2018-04-08T07:36:24.349Z,31.00
2018-04-08T07:38:52.632Z,31.00
2018-04-08T07:41:20.893Z,30.20
2018-04-08T07:43:49.272Z,30.80
2018-04-08T07:46:17.624Z,30.40
2018-04-08T07:48:46.664Z,29.90
2018-04-08T07:51:14.945Z,29.90
2018-04-08T07:53:43.266Z,29.80
2018-04-08T07:56:12.402Z,29.80
2018-04-08T07:58:41.332Z,29.70
2018-04-08T08:01:09.638Z,29.60
2018-04-08T08:03:37.869Z,29.40
2018-04-08T08:06:06.137Z,29.10
2018-04-08T08:08:35.319Z,29.20
2018-04-08T08:11:04.338Z,29.00
2018-04-08T08:13:32.649Z,29.10
2018-04-08T08:16:00.913Z,29.10
2018-04-08T08:18:29.175Z,29.20
2018-04-08T08:20:57.461Z,29.20
2018-04-08T08:23:25.969Z,29.10
2018-04-08T08:25:54.746Z,29.30
2018-04-08T08:28:22.986Z,29.20
2018-04-08T08:30:51.728Z,29.20
2018-04-08T08:33:20.930Z,28.60
2018-04-08T08:35:49.228Z,28.80
2018-04-08T08:38:17.503Z,28.60
2018-04-08T08:40:45.771Z,28.40
2018-04-08T08:43:14.808Z,28.30
2018-04-08T08:45:43.017Z,28.50
2018-04-08T08:48:14.822Z,28.30
2018-04-08T08:50:43.054Z,28.20
2018-04-08T08:53:11.346Z,28.20
2018-04-08T08:55:39.612Z,28.20
2018-04-08T08:58:08.687Z,28.00
2018-04-08T09:00:36.964Z,28.00
2018-04-08T09:03:05.788Z,28.00
2018-04-08T09:05:34.058Z,28.00
2018-04-08T09:08:03.990Z,27.20
2018-04-08T09:10:32.255Z,27.20
2018-04-08T09:13:01.296Z,27.10
2018-04-08T09:15:29.550Z,27.00
2018-04-08T09:17:57.832Z,27.20
2018-04-08T09:20:41.087Z,27.10
2018-04-08T09:23:14.958Z,26.80
2018-04-08T09:25:44.964Z,26.60
2018-04-08T09:28:14.083Z,27.40
2018-04-08T09:30:42.272Z,26.80
2018-04-08T09:33:10.546Z,26.80
2018-04-08T09:35:39.247Z,26.70
2018-04-08T09:38:07.508Z,26.50
2018-04-08T09:40:36.533Z,26.50
2018-04-08T09:43:04.803Z,26.50
2018-04-08T09:45:33.111Z,26.60
2018-04-08T09:48:02.172Z,26.70
2018-04-08T09:50:30.419Z,26.70
2018-04-08T09:52:58.687Z,26.30
2018-04-08T09:55:26.987Z,26.30
2018-04-08T09:57:55.275Z,26.20
2018-04-08T10:00:30.074Z,26.40
2018-04-08T10:03:04.119Z,26.40
2018-04-08T10:05:32.603Z,26.60
2018-04-08T10:08:04.412Z,26.80
2018-04-08T10:10:32.711Z,26.70
2018-04-08T10:13:01.162Z,26.80
2018-04-08T10:15:29.435Z,26.60
2018-04-08T10:17:57.712Z,26.60
2018-04-08T10:20:26.004Z,26.30
2018-04-08T10:22:55.062Z,26.10
2018-04-08T10:25:23.337Z,25.90
2018-04-08T10:27:52.493Z,26.50
2018-04-08T10:30:20.764Z,25.90
2018-04-08T10:32:49.008Z,25.80
2018-04-08T10:35:18.039Z,26.00
2018-04-08T10:37:46.335Z,25.90
2018-04-08T10:40:14.613Z,25.70
2018-04-08T10:42:42.929Z,25.60
2018-04-08T10:45:11.266Z,25.80
2018-04-08T10:47:39.537Z,25.80
2018-04-08T10:50:08.676Z,25.70
2018-04-08T10:52:36.973Z,25.20
2018-04-08T10:55:05.362Z,25.50
2018-04-08T10:57:33.613Z,25.20
2018-04-08T11:00:01.908Z,25.40
2018-04-08T11:02:30.182Z,25.60
2018-04-08T11:04:58.511Z,25.40
2018-04-08T11:07:26.734Z,25.30
2018-04-08T11:09:55.080Z,25.20
2018-04-08T11:12:23.501Z,24.90
2018-04-08T11:14:51.885Z,25.10
2018-04-08T11:17:21.886Z,24.40
2018-04-08T11:19:50.128Z,24.50
2018-04-08T11:22:19.159Z,24.80
2018-04-08T11:24:48.513Z,24.70
2018-04-08T11:27:16.766Z,24.60
2018-04-08T11:29:45.031Z,24.30
2018-04-08T11:32:13.415Z,24.40
2018-04-08T11:34:41.705Z,24.50
2018-04-08T11:37:09.945Z,24.50
2018-04-08T11:39:39.361Z,24.60
2018-04-08T11:42:08.450Z,24.60
2018-04-08T11:44:38.197Z,24.60
2018-04-08T11:47:07.234Z,24.60
2018-04-08T11:49:35.467Z,24.50
2018-04-08T11:52:03.756Z,24.60
2018-04-08T11:54:32.050Z,24.60
2018-04-08T11:57:00.354Z,24.70
2018-04-08T11:59:28.630Z,24.60
2018-04-08T12:01:56.927Z,24.60
2018-04-08T12:04:25.190Z,24.70
2018-04-08T12:06:54.425Z,24.70
2018-04-08T12:09:24.020Z,24.50
2018-04-08T12:11:52.244Z,24.50
2018-04-08T12:14:20.531Z,24.70
2018-04-08T12:16:48.956Z,24.50
2018-04-08T12:19:17.195Z,24.20
2018-04-08T12:21:45.943Z,24.20
2018-04-08T12:24:15.721Z,23.80
2018-04-08T12:26:54.771Z,23.80
2018-04-08T12:29:23.029Z,23.40
2018-04-08T12:31:51.298Z,23.60
2018-04-08T12:34:19.629Z,23.70
2018-04-08T12:36:48.704Z,23.20
2018-04-08T12:39:16.906Z,23.20
2018-04-08T12:41:46.084Z,23.50
2018-04-08T12:44:14.479Z,23.50
2018-04-08T12:46:42.726Z,23.40
2018-04-08T12:49:10.985Z,23.30
2018-04-08T12:51:39.274Z,23.00
2018-04-08T12:54:07.540Z,23.00
2018-04-08T12:56:35.805Z,23.00
2018-04-08T12:59:04.955Z,23.00
2018-04-08T13:01:33.243Z,23.20
2018-04-08T13:04:03.041Z,22.80
2018-04-08T13:06:31.372Z,22.80
2018-04-08T13:09:00.570Z,23.10
2018-04-08T13:11:28.937Z,23.00
2018-04-08T13:13:57.152Z,23.10
2018-04-08T13:16:26.221Z,23.20
2018-04-08T13:18:55.317Z,22.80
2018-04-08T13:21:23.585Z,23.10
2018-04-08T13:23:51.977Z,23.00
2018-04-08T13:26:20.233Z,23.20
2018-04-08T13:28:48.497Z,23.00
2018-04-08T13:31:16.846Z,22.90
2018-04-08T13:33:45.863Z,23.20
2018-04-08T13:36:14.136Z,23.20
2018-04-08T13:38:42.482Z,22.90
2018-04-08T13:41:11.538Z,22.50
2018-04-08T13:43:39.806Z,22.40
2018-04-08T13:46:08.897Z,22.60
2018-04-08T13:48:37.137Z,22.70
2018-04-08T13:51:06.195Z,22.40
2018-04-08T13:53:34.518Z,22.50
2018-04-08T13:56:02.859Z,22.30
2018-04-08T13:58:31.183Z,22.10
2018-04-08T14:00:59.550Z,22.60
2018-04-08T14:03:27.810Z,22.30
2018-04-08T14:05:56.073Z,22.60
2018-04-08T14:08:24.382Z,22.30
2018-04-08T14:10:53.508Z,21.40
2018-04-08T14:13:22.589Z,21.40
2018-04-08T14:15:50.946Z,21.50
2018-04-08T14:18:20.190Z,21.40
2018-04-08T14:20:48.497Z,21.50
2018-04-08T14:23:17.418Z,21.50
2018-04-08T14:25:45.680Z,21.10
2018-04-08T14:28:14.694Z,20.90
2018-04-08T14:30:43.000Z,20.90
2018-04-08T14:33:11.284Z,20.60
2018-04-08T14:35:40.280Z,20.50
2018-04-08T14:38:09.351Z,20.30
2018-04-08T14:40:37.637Z,20.50
2018-04-08T14:43:05.967Z,20.40
2018-04-08T14:45:34.291Z,20.50
2018-04-08T14:48:02.539Z,20.20
2018-04-08T14:50:30.800Z,20.50
2018-04-08T14:52:59.094Z,20.30
2018-04-08T14:55:28.301Z,21.10
2018-04-08T14:57:56.541Z,20.60
2018-04-08T15:00:24.828Z,21.40
2018-04-08T15:02:53.062Z,21.60
2018-04-08T15:05:22.056Z,21.60
2018-04-08T15:07:51.093Z,21.50
2018-04-08T15:10:19.792Z,21.50
2018-04-08T15:12:48.030Z,21.50
2018-04-08T15:15:17.243Z,21.50
2018-04-08T15:17:45.483Z,21.40
2018-04-08T15:20:14.532Z,21.60
2018-04-08T15:22:42.826Z,21.40
2018-04-08T15:25:11.652Z,21.40
2018-04-08T15:27:46.327Z,21.40
2018-04-08T15:30:14.659Z,21.40
2018-04-08T15:32:42.891Z,21.40
2018-04-08T15:35:11.173Z,21.40
2018-04-08T15:37:39.452Z,21.50
2018-04-08T15:40:07.685Z,21.50
2018-04-08T15:42:36.715Z,21.40
2018-04-08T15:45:05.056Z,21.30
2018-04-08T15:47:33.379Z,21.40
2018-04-08T15:50:02.571Z,21.40
2018-04-08T15:52:32.643Z,21.70
2018-04-08T15:55:01.732Z,21.40
2018-04-08T15:57:30.006Z,21.40
2018-04-08T15:59:58.237Z,21.30
2018-04-08T16:02:27.329Z,21.40
2018-04-08T16:04:55.602Z,21.40
2018-04-08T16:07:23.853Z,21.40
2018-04-08T16:09:52.139Z,21.10
2018-04-08T16:12:20.417Z,20.80
2018-04-08T16:14:48.680Z,20.60
2018-04-08T16:17:16.926Z,21.20
2018-04-08T16:19:45.913Z,21.40
2018-04-08T16:22:15.005Z,21.90
2018-04-08T16:24:43.213Z,21.80
2018-04-08T16:27:12.245Z,22.30
2018-04-08T16:29:40.477Z,22.30
2018-04-08T16:32:09.560Z,22.70
2018-04-08T16:34:37.753Z,22.70
2018-04-08T16:37:06.772Z,23.50
2018-04-08T16:39:35.024Z,22.90
2018-04-08T16:42:03.269Z,22.90
2018-04-08T16:44:31.582Z,22.90
2018-04-08T16:47:00.015Z,23.10
2018-04-08T16:49:28.263Z,23.20
2018-04-08T16:51:57.261Z,23.30
2018-04-08T16:54:25.577Z,23.30
2018-04-08T16:56:53.931Z,23.40
2018-04-08T16:59:22.224Z,23.90
2018-04-08T17:01:50.526Z,23.30
2018-04-08T17:04:18.800Z,23.30
2018-04-08T17:06:48.770Z,23.30
2018-04-08T17:09:17.056Z,23.30
2018-04-08T17:11:45.321Z,23.30
2018-04-08T17:14:13.607Z,23.40
2018-04-08T17:16:42.659Z,23.30
2018-04-08T17:19:10.926Z,23.40
2018-04-08T17:21:39.311Z,23.40
2018-04-08T17:24:07.594Z,23.40
2018-04-08T17:26:36.579Z,23.50
2018-04-08T17:29:04.857Z,23.50
2018-04-08T17:31:33.229Z,23.60
2018-04-08T17:34:02.269Z,23.90
2018-04-08T17:36:30.538Z,23.90
2018-04-08T17:38:58.797Z,23.90
2018-04-08T17:41:27.820Z,24.20
2018-04-08T17:43:56.166Z,24.20
2018-04-08T17:46:25.201Z,24.40
2018-04-08T17:48:54.103Z,24.40
2018-04-08T17:51:22.346Z,24.60
2018-04-08T17:53:51.532Z,24.90
2018-04-08T17:56:19.769Z,24.90
2018-04-08T17:58:48.020Z,24.90
2018-04-08T18:01:16.264Z,24.80
2018-04-08T18:03:45.322Z,24.80
2018-04-08T18:06:13.646Z,24.80
2018-04-08T18:08:41.937Z,24.80
2018-04-08T18:11:10.235Z,24.80
2018-04-08T18:13:38.525Z,24.80
2018-04-08T18:16:06.982Z,24.80
2018-04-08T18:18:36.010Z,24.80
2018-04-08T18:21:05.173Z,24.80
2018-04-08T18:23:33.439Z,24.80
2018-04-08T18:26:01.727Z,24.80
2018-04-08T18:28:29.992Z,24.80
2018-04-08T18:30:58.260Z,24.90
2018-04-08T18:33:26.774Z,25.40
2018-04-08T18:35:55.020Z,25.50
2018-04-08T18:38:23.284Z,25.60
2018-04-08T18:40:51.518Z,25.50
2018-04-08T18:43:20.638Z,25.80
2018-04-08T18:45:49.657Z,26.00
2018-04-08T18:48:17.949Z,25.90
2018-04-08T18:50:46.220Z,26.10
2018-04-08T18:53:14.473Z,26.20
2018-04-08T18:55:43.515Z,26.50
2018-04-08T18:58:11.758Z,26.50
2018-04-08T19:00:40.816Z,27.10
2018-04-08T19:03:09.110Z,27.20
2018-04-08T19:05:37.437Z,27.30
2018-04-08T19:08:06.642Z,27.60
2018-04-08T19:10:34.898Z,27.40
2018-04-08T19:13:03.954Z,27.30
2018-04-08T19:15:32.307Z,27.30
2018-04-08T19:18:03.338Z,27.70
2018-04-08T19:20:31.678Z,28.00
2018-04-08T19:22:59.925Z,27.90
2018-04-08T19:25:28.302Z,27.90
2018-04-08T19:27:56.623Z,27.80
2018-04-08T19:30:24.857Z,27.90
2018-04-08T19:32:53.152Z,27.80
2018-04-08T19:35:21.426Z,27.70
2018-04-08T19:37:49.716Z,27.70
2018-04-08T19:40:18.131Z,27.90
2018-04-08T19:42:48.114Z,28.20
2018-04-08T19:45:16.407Z,28.20
2018-04-08T19:47:45.491Z,28.10
2018-04-08T19:50:13.726Z,28.00
2018-04-08T19:52:42.795Z,28.50
2018-04-08T19:55:11.043Z,28.10
2018-04-08T19:57:40.019Z,28.30
2018-04-08T20:00:08.300Z,28.50
2018-04-08T20:02:36.542Z,28.60
2018-04-08T20:05:04.815Z,28.70
2018-04-08T20:07:33.078Z,28.70
2018-04-08T20:10:01.327Z,28.90
2018-04-08T20:12:30.349Z,29.00
2018-04-08T20:14:58.637Z,29.00
2018-04-08T20:17:26.873Z,29.00
2018-04-08T20:19:55.173Z,29.00
2018-04-08T20:22:23.470Z,28.90
2018-04-08T20:24:51.740Z,28.60
2018-04-08T20:27:20.759Z,28.40
2018-04-08T20:29:49.023Z,28.70
2018-04-08T20:32:17.332Z,28.60
2018-04-08T20:34:45.626Z,28.90
2018-04-08T20:37:14.215Z,29.00
2018-04-08T20:39:42.615Z,29.00
2018-04-08T20:42:11.714Z,29.40
2018-04-08T20:44:40.780Z,29.50
2018-04-08T20:47:10.579Z,29.50
2018-04-08T20:49:38.851Z,29.60
2018-04-08T20:52:07.146Z,29.50
2018-04-08T20:54:35.411Z,29.60
2018-04-08T20:57:03.700Z,29.70
2018-04-08T20:59:33.350Z,29.90
2018-04-08T21:02:01.622Z,30.00
2018-04-08T21:04:29.860Z,30.80
2018-04-08T21:06:58.105Z,30.10
2018-04-08T21:09:27.162Z,30.30
2018-04-08T21:11:55.463Z,30.30
2018-04-08T21:14:23.745Z,30.70
2018-04-08T21:16:51.967Z,30.60
2018-04-08T21:19:20.227Z,30.50
2018-04-08T21:21:49.300Z,30.60
2018-04-08T21:24:17.535Z,30.50
2018-04-08T21:26:45.793Z,30.50
2018-04-08T21:29:14.828Z,30.50
2018-04-08T21:31:43.116Z,30.50
2018-04-08T21:34:11.390Z,30.50
2018-04-08T21:36:39.707Z,30.50
2018-04-08T21:39:08.131Z,30.40
2018-04-08T21:41:36.418Z,30.40
2018-04-08T21:44:04.696Z,30.90
2018-04-08T21:46:32.928Z,31.00
2018-04-08T21:49:01.202Z,31.10
2018-04-08T21:51:29.527Z,31.00
2018-04-08T21:53:57.727Z,30.90
2018-04-08T21:56:26.047Z,31.00
2018-04-08T21:58:54.264Z,31.00
2018-04-08T22:01:23.268Z,31.40
2018-04-08T22:03:52.338Z,31.40
2018-04-08T22:06:20.589Z,31.60
2018-04-08T22:08:48.870Z,31.70
2018-04-08T22:11:17.196Z,31.70
2018-04-08T22:13:46.235Z,31.80
2018-04-08T22:16:14.481Z,31.90
2018-04-08T22:18:42.737Z,32.10
2018-04-08T22:21:11.927Z,32.40
2018-04-08T22:23:40.196Z,32.30
2018-04-08T22:26:08.434Z,32.40
2018-04-08T22:28:36.692Z,32.40
2018-04-08T22:31:05.868Z,32.80
2018-04-08T22:33:34.100Z,32.80
2018-04-08T22:36:02.368Z,33.00
2018-04-08T22:38:30.607Z,33.00
2018-04-08T22:40:58.866Z,33.10
2018-04-08T22:43:27.156Z,33.10
2018-04-08T22:45:55.411Z,33.30
2018-04-08T22:48:23.669Z,33.60
2018-04-08T22:50:51.925Z,33.70
2018-04-08T22:53:20.951Z,33.60
2018-04-08T22:55:49.290Z,33.60
2018-04-08T22:58:17.599Z,34.10
2018-04-08T23:00:46.606Z,34.50
2018-04-08T23:03:15.769Z,34.50
2018-04-08T23:05:44.026Z,34.60
2018-04-08T23:08:13.148Z,34.50
2018-04-08T23:10:41.443Z,34.50
2018-04-08T23:13:11.405Z,34.30
2018-04-08T23:15:39.832Z,34.20
2018-04-08T23:18:08.204Z,34.20
2018-04-08T23:20:36.423Z,34.50
2018-04-08T23:23:05.454Z,35.10
2018-04-08T23:25:34.622Z,35.00
2018-04-08T23:28:03.644Z,35.30
2018-04-08T23:30:31.892Z,35.30
2018-04-08T23:33:00.138Z,35.10
2018-04-08T23:35:28.380Z,36.30
2018-04-08T23:37:56.629Z,35.70
2018-04-08T23:40:25.637Z,36.20
2018-04-08T23:42:54.674Z,36.30
2018-04-08T23:45:22.952Z,36.50
2018-04-08T23:47:51.181Z,36.50
2018-04-08T23:50:20.234Z,37.20
2018-04-08T23:52:48.473Z,37.00
2018-04-08T23:55:17.492Z,37.00
2018-04-08T23:57:45.754Z,37.10
